Hobart, OK

10:00 AM CDT on May 06, 2015 (GMT -0500)
Hobart OK | | Change Station
CLOSE
Current Station
Personal Weather Station
Location: Hobart, OK
Elevation: 1572 ft
Nearby Weather Stations

Elev 1572 ft 35.03 °N, 99.10 °W | Updated 12 minutes ago

Overcast
Overcast
66.7 °F
Feels Like 66.7 °F
N
4.2
Wind Variable Wind from SSE

Today
High -- | Low -- °F
--% Chance of Precip.
Yesterday
High -- | Low -- °F
Precip. -- in
6:40 AM 8:25 PM
Waning Gibbous, 94% visible
Pressure 29.88 in
Visibility 6.0 miles
Clouds Mostly Cloudy 800 ft
Mostly Cloudy 1200 ft
Overcast 2000 ft
Dew Point 66 °F
Humidity 99%
Rainfall 0.02 in
Snow Depth Not available.
UV 1 out of 12
Pollen 5.90 out of 12
Air Quality Not available.
Flu Activity Local Activity
SPECI KHBR 061433Z AUTO 17010KT 6SM -RA BR BKN008 BKN012 OVC020 19/19 A2988 RMK AO2 CIG 006V010 P0000 T01940189

More Conditions Fewer Conditions

Pressure 29.88 in
Visibility 6.0 miles
Clouds Mostly Cloudy 800 ft
Mostly Cloudy 1200 ft
Overcast 2000 ft
Dew Point 66 °F
Humidity 99%
Rainfall 0.02 in
Snow Depth Not available.
UV 1 out of 12
Pollen 5.90 out of 12
Air Quality Not available.
Flu Activity Local Activity
SPECI KHBR 061433Z AUTO 17010KT 6SM -RA BR BKN008 BKN012 OVC020 19/19 A2988 RMK AO2 CIG 006V010 P0000 T01940189

More Conditions Fewer Conditions

10-Day Weather Forecast

Almanac

Astronomy

May. 06, 2015 Rise Set
Actual Time
Civil Twilight
Nautical Twilight
Astronomical Twilight
Moon
Length of Visible Light
Length of Day
Tomorrow will be .
, % of the Moon is Illuminated

Today's Extremes

State Highs State Lows

Community

WunderPhotos

Upload Photos

1,818,926 photos uploaded!

WunderBlogs® & News

Nearby

Air Quality

  Air Quality AQ Index Pollutant
Not available.

Snow Depth

Station Depth Elevation

Earthquake Activity

City Distance Mag. Time & Date
Minimum magnitude displayed is 2.5.

Coastal Water Temperatures

Place Temperature

Stations

Nearby Weather Stations

Station Location Temp. Windchill Dew Point Humidity Wind Precip. Elev Updated Type